createdAt,value
2022-08-01T00:01:50.901Z,1.98
2022-08-01T00:06:44.379Z,2.20
2022-08-01T00:11:39.265Z,1.70
2022-08-01T00:16:32.691Z,2.20
2022-08-01T00:21:26.063Z,2.00
2022-08-01T00:26:19.788Z,1.88
2022-08-01T00:31:14.736Z,1.83
2022-08-01T00:36:08.185Z,1.90
2022-08-01T00:41:01.707Z,2.20
2022-08-01T00:45:55.104Z,2.13
2022-08-01T00:50:50.649Z,2.20
2022-08-01T00:55:44.894Z,2.05
2022-08-01T01:00:53.321Z,2.40
2022-08-01T01:06:04.244Z,2.35
2022-08-01T01:11:06.210Z,2.20
2022-08-01T01:16:03.777Z,2.40
2022-08-01T01:21:11.976Z,3.10
2022-08-01T01:26:30.392Z,2.40
2022-08-01T01:31:28.787Z,2.22
2022-08-01T01:36:26.888Z,2.20
2022-08-01T01:41:21.948Z,2.20
2022-08-01T01:46:23.564Z,2.28
2022-08-01T01:51:20.141Z,2.50
2022-08-01T01:56:18.419Z,2.60
2022-08-01T02:01:14.636Z,2.50
2022-08-01T02:06:09.933Z,2.42
2022-08-01T02:11:23.208Z,2.13
2022-08-01T02:16:19.644Z,2.17
2022-08-01T02:21:21.986Z,2.22
2022-08-01T02:26:20.839Z,2.55
2022-08-01T02:31:20.185Z,2.45
2022-08-01T02:36:31.174Z,2.47
2022-08-01T02:41:30.392Z,2.00
2022-08-01T02:46:30.274Z,2.10
2022-08-01T02:51:27.809Z,2.10
2022-08-01T02:56:24.781Z,2.20
2022-08-01T03:01:22.203Z,2.05
2022-08-01T03:06:17.721Z,2.13
2022-08-01T03:11:12.529Z,1.95
2022-08-01T03:16:08.616Z,2.50
2022-08-01T03:21:05.343Z,2.28
2022-08-01T03:26:00.468Z,1.98
2022-08-01T03:30:56.314Z,2.30
2022-08-01T03:35:56.440Z,2.50
2022-08-01T03:40:58.103Z,2.10
2022-08-01T03:45:55.033Z,2.20
2022-08-01T03:50:53.592Z,2.20
2022-08-01T03:55:47.374Z,1.92
2022-08-01T04:00:43.380Z,2.42
2022-08-01T04:05:37.490Z,2.20
2022-08-01T04:10:31.567Z,2.40
2022-08-01T04:15:25.220Z,2.10
2022-08-01T04:20:20.083Z,1.98
2022-08-01T04:25:21.567Z,1.92
2022-08-01T04:30:20.995Z,2.00
2022-08-01T04:35:23.348Z,2.10
2022-08-01T04:40:37.948Z,1.90
2022-08-01T04:45:32.224Z,2.20
2022-08-01T04:50:27.852Z,2.10
2022-08-01T04:55:21.269Z,1.90
2022-08-01T05:00:18.431Z,1.95
2022-08-01T05:05:13.597Z,2.17
2022-08-01T05:10:09.614Z,2.05
2022-08-01T05:15:03.045Z,2.22
2022-08-01T05:19:56.512Z,2.33
2022-08-01T05:24:50.001Z,2.70
2022-08-01T05:29:45.138Z,2.42
2022-08-01T05:34:53.979Z,2.35
2022-08-01T05:40:01.132Z,2.47
2022-08-01T05:44:55.833Z,2.13
2022-08-01T05:49:49.425Z,2.47
2022-08-01T05:54:43.177Z,2.20
2022-08-01T05:59:36.579Z,2.40
2022-08-01T06:04:31.455Z,2.15
2022-08-01T06:09:27.746Z,2.38
2022-08-01T06:14:29.544Z,2.50
2022-08-01T06:19:23.182Z,2.33
2022-08-01T06:24:17.906Z,2.40
2022-08-01T06:29:11.245Z,2.30
2022-08-01T06:34:05.695Z,2.22
2022-08-01T06:38:59.086Z,2.30
2022-08-01T06:43:54.516Z,2.20
2022-08-01T06:48:48.074Z,2.35
2022-08-01T06:53:41.598Z,2.13
2022-08-01T06:58:37.699Z,2.10
2022-08-01T07:03:52.382Z,2.47
2022-08-01T07:08:46.210Z,2.17
2022-08-01T07:13:43.973Z,2.03
2022-08-01T07:18:39.118Z,2.45
2022-08-01T07:23:33.905Z,2.40
2022-08-01T07:28:30.831Z,2.13
2022-08-01T07:33:24.523Z,2.25
2022-08-01T07:38:19.713Z,2.60
2022-08-01T07:43:13.064Z,2.63
2022-08-01T07:48:09.285Z,2.53
2022-08-01T07:53:03.493Z,2.47
2022-08-01T07:57:58.313Z,2.58
2022-08-01T08:02:51.778Z,3.13
2022-08-01T08:07:45.238Z,2.53
2022-08-01T08:12:38.867Z,2.40
2022-08-01T08:17:35.558Z,2.58
2022-08-01T08:22:32.688Z,2.30
2022-08-01T08:27:26.801Z,2.65
2022-08-01T08:32:20.221Z,2.50
2022-08-01T08:37:15.208Z,2.50
2022-08-01T08:42:10.146Z,2.20
2022-08-01T08:47:09.216Z,2.70
2022-08-01T08:52:05.084Z,2.58
2022-08-01T08:57:02.355Z,2.60
2022-08-01T09:01:56.565Z,2.67
2022-08-01T09:06:50.715Z,2.90
2022-08-01T09:11:44.145Z,2.20
2022-08-01T09:17:04.207Z,2.35
2022-08-01T09:22:00.826Z,2.70
2022-08-01T09:26:55.233Z,2.50
2022-08-01T09:31:52.918Z,2.40
2022-08-01T09:36:54.373Z,2.25
2022-08-01T09:41:48.486Z,2.10
2022-08-01T09:46:54.971Z,2.33
2022-08-01T09:52:00.190Z,2.53
2022-08-01T09:56:54.165Z,2.50
2022-08-01T10:01:50.114Z,2.50
2022-08-01T10:06:50.883Z,2.45
2022-08-01T10:11:45.489Z,2.38
2022-08-01T10:16:40.245Z,2.60
2022-08-01T10:21:45.474Z,2.47
2022-08-01T10:26:55.842Z,2.50
2022-08-01T10:31:50.912Z,2.22
2022-08-01T10:36:47.902Z,2.30
2022-08-01T10:41:42.500Z,2.30
2022-08-01T10:46:40.886Z,2.40
2022-08-01T10:51:52.357Z,2.72
2022-08-01T10:56:51.651Z,2.55
2022-08-01T11:02:00.248Z,2.72
2022-08-01T11:07:07.402Z,2.65
2022-08-01T11:12:13.095Z,2.60
2022-08-01T11:17:37.670Z,2.47
2022-08-01T11:23:26.533Z,2.85
2022-08-01T11:28:31.941Z,2.60
2022-08-01T11:39:16.889Z,2.15
2022-08-01T11:44:13.014Z,2.30
2022-08-01T11:49:28.951Z,2.50
2022-08-01T11:54:35.330Z,2.72
2022-08-01T11:59:41.362Z,2.42
2022-08-01T12:04:56.714Z,2.67
2022-08-01T12:10:02.687Z,2.50
2022-08-01T12:14:59.376Z,2.00
2022-08-01T12:19:52.780Z,1.98
2022-08-01T12:24:46.161Z,2.20
2022-08-01T12:29:44.703Z,2.25
2022-08-01T12:34:39.116Z,2.40
2022-08-01T12:39:38.379Z,2.38
2022-08-01T12:44:34.402Z,2.00
2022-08-01T12:49:29.693Z,1.90
2022-08-01T12:54:23.422Z,1.85
2022-08-01T12:59:26.084Z,1.92
2022-08-01T13:04:19.489Z,2.15
2022-08-01T13:09:14.771Z,2.03
2022-08-01T13:14:08.290Z,1.80
2022-08-01T13:19:01.923Z,2.15
2022-08-01T13:24:08.213Z,2.28
2022-08-01T13:29:08.806Z,1.70
2022-08-01T13:34:02.230Z,1.70
2022-08-01T13:39:12.999Z,2.08
2022-08-01T13:44:09.887Z,1.83
2022-08-01T13:49:15.179Z,1.83
2022-08-01T13:54:10.027Z,2.03
2022-08-01T13:59:03.972Z,1.90
2022-08-01T14:03:58.705Z,2.17
2022-08-01T14:08:52.112Z,1.73
2022-08-01T14:13:46.602Z,2.15
2022-08-01T14:18:40.417Z,1.85
2022-08-01T14:23:39.201Z,1.83
2022-08-01T14:28:33.207Z,2.00
2022-08-01T14:33:27.256Z,2.30
2022-08-01T14:38:31.447Z,2.00
2022-08-01T14:43:32.698Z,2.05
2022-08-01T14:48:26.736Z,2.05
2022-08-01T14:53:20.403Z,2.60
2022-08-01T14:58:13.859Z,1.98
2022-08-01T15:03:08.633Z,1.95
2022-08-01T15:08:02.013Z,1.73
2022-08-01T15:12:56.591Z,1.90
2022-08-01T15:17:49.997Z,1.98
2022-08-01T15:22:44.993Z,2.00
2022-08-01T15:27:38.451Z,2.15
2022-08-01T15:32:31.928Z,1.58
2022-08-01T15:37:25.722Z,1.70
2022-08-01T15:42:25.594Z,1.88
2022-08-01T15:47:20.622Z,2.00
2022-08-01T15:52:22.156Z,1.80
2022-08-01T15:57:16.184Z,1.80
2022-08-01T16:02:11.470Z,2.08
2022-08-01T16:07:05.179Z,1.90
2022-08-01T16:11:58.632Z,1.58
2022-08-01T16:16:51.978Z,2.10
2022-08-01T16:21:47.880Z,1.30
2022-08-01T16:26:41.505Z,2.10
2022-08-01T16:32:01.466Z,1.60
2022-08-01T16:36:50.292Z,2.08
2022-08-01T16:41:43.642Z,1.75
2022-08-01T16:46:37.287Z,1.70
2022-08-01T16:51:32.453Z,1.67
2022-08-01T16:56:27.844Z,1.60
2022-08-01T17:02:03.360Z,1.90
2022-08-01T17:06:35.083Z,1.92
2022-08-01T17:11:30.083Z,1.80
2022-08-01T17:16:23.880Z,1.73
2022-08-01T17:21:17.332Z,2.00
2022-08-01T17:26:10.898Z,2.15
2022-08-01T17:31:07.487Z,1.83
2022-08-01T17:36:03.994Z,1.80
2022-08-01T17:40:57.507Z,2.03
2022-08-01T17:45:51.578Z,1.77
2022-08-01T17:50:48.861Z,1.75
2022-08-01T17:55:56.004Z,1.98
2022-08-01T18:00:52.643Z,1.67
2022-08-01T18:05:49.548Z,2.17
2022-08-01T18:10:47.004Z,1.55
2022-08-01T18:15:40.807Z,2.08
2022-08-01T18:20:37.967Z,1.88
2022-08-01T18:25:35.353Z,1.75
2022-08-01T18:30:29.193Z,2.10
2022-08-01T18:35:32.425Z,1.70
2022-08-01T18:40:40.071Z,1.60
2022-08-01T18:45:35.960Z,2.00
2022-08-01T18:50:31.970Z,1.90
2022-08-01T18:55:26.092Z,2.13
2022-08-01T19:00:20.987Z,1.80
2022-08-01T19:05:14.560Z,2.08
2022-08-01T19:10:09.021Z,2.22
2022-08-01T19:15:11.767Z,1.93
2022-08-01T19:20:09.139Z,1.95
2022-08-01T19:25:02.724Z,1.98
2022-08-01T19:30:03.067Z,2.00
2022-08-01T19:35:07.306Z,2.03
2022-08-01T19:40:01.499Z,2.38
2022-08-01T19:44:59.088Z,2.08
2022-08-01T19:49:52.682Z,2.10
2022-08-01T19:54:53.438Z,2.20
2022-08-01T19:59:48.966Z,2.08
2022-08-01T20:04:44.700Z,2.00
2022-08-01T20:09:43.901Z,2.10
2022-08-01T20:14:39.163Z,2.10
2022-08-01T20:19:33.093Z,1.90
2022-08-01T20:24:29.772Z,2.20
2022-08-01T20:29:29.281Z,1.92
2022-08-01T20:34:25.963Z,1.95
2022-08-01T20:39:21.556Z,1.80
2022-08-01T20:44:17.151Z,1.70
2022-08-01T20:49:13.885Z,1.40
2022-08-01T20:54:11.840Z,1.38
2022-08-01T20:59:39.558Z,2.05
2022-08-01T21:04:55.951Z,1.60
2022-08-01T21:10:00.191Z,1.73
2022-08-01T21:14:57.611Z,1.70
2022-08-01T21:19:57.794Z,1.50
2022-08-01T21:25:01.895Z,1.70
2022-08-01T21:29:58.064Z,2.00
2022-08-01T21:34:53.101Z,1.70
2022-08-01T21:39:48.055Z,1.58
2022-08-01T21:44:46.405Z,1.50
2022-08-01T21:49:40.596Z,1.63
2022-08-01T21:54:48.697Z,1.50
2022-08-01T21:59:55.888Z,1.60
2022-08-01T22:05:02.225Z,1.42
2022-08-01T22:09:59.836Z,1.50
2022-08-01T22:14:58.703Z,1.50
2022-08-01T22:19:55.134Z,1.33
2022-08-01T22:24:50.809Z,1.60
2022-08-01T22:29:44.682Z,1.92
2022-08-01T22:34:39.458Z,1.90
2022-08-01T22:39:32.761Z,1.95
2022-08-01T22:44:35.988Z,2.00
2022-08-01T22:49:44.627Z,2.25
2022-08-01T22:54:42.000Z,1.80
2022-08-01T22:59:47.440Z,2.28
2022-08-01T23:04:47.639Z,2.10
2022-08-01T23:09:54.023Z,2.03
2022-08-01T23:14:50.895Z,1.70
2022-08-01T23:19:47.685Z,1.88
2022-08-01T23:25:03.589Z,2.00
2022-08-01T23:29:58.829Z,1.85
2022-08-01T23:34:54.391Z,1.60
2022-08-01T23:39:49.430Z,1.63
2022-08-01T23:44:43.063Z,1.90
2022-08-01T23:49:53.123Z,1.90
2022-08-01T23:54:49.186Z,1.80
2022-08-01T23:59:53.371Z,1.75
